Time;durP1;ratioP1;P1;durP2;ratioP2;P2;SDS_P1;SDS_P2;PMS_P1;PMS_P2;Temp;Humidity;BMP_temperature;BMP_pressure;BME280_temperature;BME280_humidity;BME280_pressure;Samples;Min_cycle;Max_cycle;Signal;HPM_P1;HPM_P2
2023/02/18 00:01:29;;;;;;;31.90;17.60;;;;;;;7.00;47.24;95376.34;4196485;28;20101;-54
2023/02/18 00:03:30;;;;;;;37.58;18.42;;;;;;;7.01;47.15;95370.16;4212552;28;20113;-50
2023/02/18 00:05:32;;;;;;;33.40;16.73;;;;;;;6.83;48.05;95360.25;4212007;28;20048;-51
2023/02/18 00:07:35;;;;;;;32.72;16.52;;;;;;;6.88;47.54;95352.91;4204286;28;20052;-51
2023/02/18 00:09:37;;;;;;;34.57;16.73;;;;;;;6.87;47.68;95353.84;4199952;28;20052;-52
2023/02/18 00:11:39;;;;;;;34.40;16.58;;;;;;;6.89;47.22;95358.94;4212085;28;20821;-53
2023/02/18 00:13:41;;;;;;;32.95;15.57;;;;;;;6.82;47.87;95365.56;4190939;28;20052;-50
2023/02/18 00:15:42;;;;;;;33.90;16.60;;;;;;;6.63;47.77;95353.19;4178636;28;20044;-51
2023/02/18 00:17:44;;;;;;;28.20;16.08;;;;;;;6.65;48.20;95344.28;4182233;28;20582;-56
2023/02/18 00:19:46;;;;;;;31.95;16.33;;;;;;;6.73;48.19;95348.88;4196653;28;20109;-50
2023/02/18 00:21:47;;;;;;;25.88;15.20;;;;;;;6.66;48.05;95351.13;4202514;28;20107;-53
2023/02/18 00:23:50;;;;;;;27.20;16.63;;;;;;;6.59;48.00;95341.34;4202362;28;20048;-55
2023/02/18 00:25:59;;;;;;;25.48;13.57;;;;;;;6.66;48.09;95330.31;4212145;28;20086;-55
2023/02/18 00:28:01;;;;;;;34.78;16.38;;;;;;;6.76;48.11;95330.44;4211755;28;20055;-52
2023/02/18 00:30:04;;;;;;;30.20;15.23;;;;;;;6.80;48.00;95334.47;4209215;28;20040;-54
2023/02/18 00:32:06;;;;;;;28.75;16.08;;;;;;;6.84;48.37;95324.59;4182054;28;20048;-56
2023/02/18 00:34:10;;;;;;;33.10;17.35;;;;;;;6.91;47.63;95318.81;4195691;28;20106;-56
2023/02/18 00:36:16;;;;;;;28.98;15.25;;;;;;;6.84;47.91;95322.84;4194447;28;20135;-55
2023/02/18 00:38:17;;;;;;;31.20;14.25;;;;;;;6.67;48.01;95320.75;4190536;28;20507;-52
2023/02/18 00:40:19;;;;;;;24.50;14.13;;;;;;;6.66;47.65;95313.88;4198061;28;20044;-54
2023/02/18 00:42:21;;;;;;;27.70;16.05;;;;;;;6.68;47.69;95306.78;4191069;28;20045;-55
2023/02/18 00:44:23;;;;;;;27.13;16.20;;;;;;;6.68;47.92;95315.41;4184263;28;20064;-56
2023/02/18 00:46:25;;;;;;;27.10;15.98;;;;;;;6.18;48.95;95324.53;4183577;28;20079;-55
2023/02/18 00:48:27;;;;;;;27.33;15.07;;;;;;;6.25;49.32;95323.09;4186741;28;20494;-55
2023/02/18 00:50:28;;;;;;;27.10;15.73;;;;;;;6.40;48.90;95321.09;4197271;28;20535;-55
2023/02/18 00:52:30;;;;;;;31.95;15.90;;;;;;;6.48;49.18;95310.94;4192714;28;20499;-54
2023/02/18 00:54:31;;;;;;;30.70;16.40;;;;;;;6.48;48.76;95303.94;4194771;28;20238;-53
2023/02/18 00:56:33;;;;;;;31.42;14.98;;;;;;;6.15;49.27;95317.75;4192616;28;20145;-52
2023/02/18 00:58:36;;;;;;;31.83;16.25;;;;;;;6.21;49.32;95324.28;4201399;28;20054;-56
2023/02/18 01:00:37;;;;;;;34.50;16.52;;;;;;;5.98;49.61;95313.00;4188712;28;20134;-54
2023/02/18 01:02:39;;;;;;;28.00;15.73;;;;;;;6.08;50.28;95306.19;4188968;28;20049;-53
2023/02/18 01:04:40;;;;;;;29.30;14.95;;;;;;;6.17;49.43;95310.66;4184116;28;20040;-54
2023/02/18 01:06:46;;;;;;;26.85;15.60;;;;;;;6.24;49.36;95324.03;4186466;28;20490;-55
2023/02/18 01:08:48;;;;;;;30.20;16.02;;;;;;;6.30;49.39;95315.75;4194658;28;20355;-55
2023/02/18 01:10:53;;;;;;;26.10;15.85;;;;;;;6.30;49.09;95301.00;4195625;28;20074;-52
2023/02/18 01:12:55;;;;;;;27.83;15.63;;;;;;;6.39;48.80;95309.03;4214793;28;20097;-54
2023/02/18 01:14:56;;;;;;;30.38;15.02;;;;;;;6.46;49.13;95313.66;4212438;28;20047;-50
2023/02/18 01:16:58;;;;;;;25.27;13.88;;;;;;;6.49;48.80;95313.41;4211293;28;20047;-50
2023/02/18 01:19:00;;;;;;;27.58;15.10;;;;;;;6.50;48.75;95307.25;4203548;28;20055;-48
2023/02/18 01:21:02;;;;;;;33.50;15.88;;;;;;;6.49;48.52;95302.16;4196420;28;20053;-55
2023/02/18 01:23:03;;;;;;;25.80;14.18;;;;;;;6.49;48.93;95313.41;4203720;28;20144;-51
2023/02/18 01:25:05;;;;;;;23.58;14.00;;;;;;;6.39;49.32;95296.00;4214389;28;20048;-55
2023/02/18 01:27:07;;;;;;;26.83;14.48;;;;;;;6.34;48.92;95314.59;4212402;28;20048;-52
2023/02/18 01:29:09;;;;;;;26.20;13.82;;;;;;;6.24;49.15;95304.06;4213014;28;20048;-53
2023/02/18 01:31:12;;;;;;;23.77;13.43;;;;;;;6.26;49.72;95304.78;4212690;28;20741;-52
2023/02/18 01:33:13;;;;;;;23.98;13.75;;;;;;;6.25;48.98;95307.50;4213640;28;20083;-51
2023/02/18 01:35:17;;;;;;;25.98;13.75;;;;;;;6.29;49.56;95301.94;4214091;28;20498;-53
2023/02/18 01:37:19;;;;;;;27.92;13.75;;;;;;;6.34;49.34;95299.78;4212375;28;20048;-57
2023/02/18 01:39:20;;;;;;;28.67;14.68;;;;;;;6.39;48.98;95299.47;4198152;28;20045;-55
2023/02/18 01:41:22;;;;;;;24.10;13.75;;;;;;;6.43;49.17;95302.63;4190085;28;20044;-53
2023/02/18 01:43:24;;;;;;;23.42;12.35;;;;;;;6.29;48.87;95290.69;4184296;28;20060;-55
2023/02/18 01:45:37;;;;;;;25.40;14.10;;;;;;;6.34;48.86;95306.78;4195983;28;20052;-51
2023/02/18 01:47:39;;;;;;;27.33;13.13;;;;;;;6.02;48.90;95315.25;4183550;28;20083;-50
2023/02/18 01:49:43;;;;;;;26.17;13.18;;;;;;;6.02;49.66;95320.47;4185424;28;20499;-54
2023/02/18 01:52:13;;;;;;;22.60;12.65;;;;;;;5.95;50.06;95309.69;4200819;28;20044;-53
2023/02/18 01:54:20;;;;;;;23.23;12.73;;;;;;;5.72;50.08;95323.56;4186911;28;20044;-53
2023/02/18 01:56:30;;;;;;;26.17;12.63;;;;;;;5.73;50.18;95322.63;4198110;28;20057;-52
2023/02/18 01:58:31;;;;;;;27.92;12.02;;;;;;;5.67;49.53;95326.50;4197297;28;20155;-52
2023/02/18 02:00:35;;;;;;;25.95;12.20;;;;;;;5.71;50.13;95316.72;4206080;28;20040;-56
2023/02/18 02:02:38;;;;;;;;;;;;;;;5.80;49.89;95318.63;4199384;28;20040;-53
2023/02/18 02:04:40;;;;;;;21.80;12.40;;;;;;;5.87;49.19;95319.84;4212319;28;20396;-54
2023/02/18 02:06:42;;;;;;;22.63;12.68;;;;;;;5.92;49.78;95322.91;4213710;28;20048;-51
2023/02/18 02:08:44;;;;;;;23.17;12.18;;;;;;;6.00;49.07;95317.19;4212988;28;20052;-55
2023/02/18 02:11:02;;;;;;;22.35;12.15;;;;;;;6.09;49.11;95324.28;4209553;28;20055;-53
2023/02/18 02:13:54;;;;;;;22.10;11.93;;;;;;;6.13;48.83;95309.25;4201289;28;20048;-50
2023/02/18 02:16:09;;;;;;;23.75;12.23;;;;;;;6.18;49.11;95316.72;4141338;28;20072;-53
2023/02/18 02:18:24;;;;;;;21.08;11.25;;;;;;;6.20;48.15;95307.84;4144356;28;20052;-55
2023/02/18 02:20:49;;;;;;;23.00;12.13;;;;;;;6.10;48.62;95302.50;4160995;28;20083;-52
2023/02/18 02:23:07;;;;;;;19.83;11.45;;;;;;;6.11;49.03;95318.97;4188453;28;20048;-50
2023/02/18 02:25:14;;;;;;;22.02;12.55;;;;;;;6.06;49.09;95308.88;4203222;28;20581;-53
2023/02/18 02:27:21;;;;;;;25.85;12.10;;;;;;;6.00;49.32;95305.91;4213020;28;20074;-51
2023/02/18 02:29:32;;;;;;;20.42;11.82;;;;;;;5.84;49.52;95309.66;4212721;28;20052;-54
2023/02/18 02:31:52;;;;;;;21.73;12.27;;;;;;;5.67;49.94;95308.31;4211310;28;20142;-56
2023/02/18 02:34:01;;;;;;;25.00;12.60;;;;;;;5.72;50.00;95314.00;4200697;28;20136;-55
2023/02/18 02:36:37;;;;;;;23.05;12.32;;;;;;;5.65;49.99;95304.16;4187185;28;20089;-52
2023/02/18 02:38:55;;;;;;;20.83;12.23;;;;;;;5.54;50.78;95290.19;4211987;28;20131;-53
2023/02/18 02:41:16;;;;;;;27.80;13.35;;;;;;;5.51;50.62;95294.81;4183674;28;20067;-55
2023/02/18 02:43:23;;;;;;;23.40;12.35;;;;;;;5.51;50.73;95289.63;4205356;28;20127;-52
2023/02/18 02:45:45;;;;;;;22.45;12.57;;;;;;;5.64;50.75;95282.56;4198534;28;20076;-53
2023/02/18 02:47:55;;;;;;;26.35;12.27;;;;;;;5.80;50.09;95279.63;4191036;28;20535;-53
2023/02/18 02:50:15;;;;;;;26.10;12.40;;;;;;;5.88;50.30;95281.66;4207823;28;20066;-50
2023/02/18 02:52:17;;;;;;;27.25;12.38;;;;;;;5.90;50.06;95290.16;4206214;28;20095;-49
2023/02/18 02:54:23;;;;;;;22.17;12.57;;;;;;;5.98;49.91;95282.66;4194292;28;20051;-50
2023/02/18 02:56:24;;;;;;;22.98;12.65;;;;;;;6.01;49.61;95287.59;4195365;28;20135;-54
2023/02/18 02:58:26;;;;;;;24.85;12.98;;;;;;;6.05;49.73;95294.25;4196303;28;20421;-52
2023/02/18 03:00:43;;;;;;;19.60;11.27;;;;;;;6.01;49.38;95298.00;4210018;28;20484;-54
2023/02/18 03:02:53;;;;;;;25.92;13.63;;;;;;;5.83;50.14;95300.22;4208312;28;20117;-53
2023/02/18 03:05:10;;;;;;;23.40;11.95;;;;;;;5.83;50.25;95309.75;4209964;28;20686;-52
2023/02/18 03:07:18;;;;;;;19.40;11.70;;;;;;;5.62;50.60;95312.22;4209216;28;20075;-52
2023/02/18 03:09:47;;;;;;;21.48;12.48;;;;;;;5.56;50.43;95303.09;4209155;28;20063;-55
2023/02/18 03:12:16;;;;;;;22.63;12.30;;;;;;;5.53;50.14;95314.53;4179823;28;20053;-55
2023/02/18 03:14:32;;;;;;;19.58;11.18;;;;;;;5.64;50.16;95313.75;4178847;28;20080;-52
2023/02/18 03:16:47;;;;;;;24.85;12.07;;;;;;;5.62;50.39;95307.84;4193200;28;20625;-52
2023/02/18 03:19:00;;;;;;;24.02;12.35;;;;;;;5.69;50.49;95301.22;4187119;28;20048;-52
2023/02/18 03:21:06;;;;;;;23.35;13.05;;;;;;;5.74;50.25;95298.28;4181292;28;20478;-53
2023/02/18 03:23:11;;;;;;;21.83;12.27;;;;;;;5.81;50.27;95302.09;4183707;28;20072;-55
2023/02/18 03:25:13;;;;;;;22.33;12.55;;;;;;;5.88;50.44;95316.28;4188506;28;20052;-52
2023/02/18 03:27:20;;;;;;;23.70;12.25;;;;;;;5.86;50.42;95315.56;4189495;28;20076;-51
2023/02/18 03:29:22;;;;;;;23.58;12.90;;;;;;;5.70;50.03;95334.09;4186322;28;20131;-53
2023/02/18 03:31:26;;;;;;;25.98;12.45;;;;;;;5.37;51.56;95334.78;4188822;28;20082;-55
2023/02/18 03:33:33;;;;;;;21.00;12.57;;;;;;;5.30;51.59;95343.97;4183580;28;20091;-53
2023/02/18 03:35:36;;;;;;;32.90;15.13;;;;;;;5.21;51.71;95329.88;4189246;28;20045;-52
2023/02/18 03:37:41;;;;;;;32.03;14.88;;;;;;;5.02;51.65;95338.16;4179327;28;20132;-50
2023/02/18 03:39:47;;;;;;;35.25;14.77;;;;;;;4.98;52.92;95346.28;4182144;28;20114;-51
2023/02/18 03:41:49;;;;;;;32.15;14.55;;;;;;;5.04;52.73;95338.88;4188172;28;20045;-52
2023/02/18 03:43:59;;;;;;;24.17;13.10;;;;;;;5.19;52.38;95352.53;4188177;28;20052;-56
2023/02/18 03:46:02;;;;;;;23.23;11.60;;;;;;;5.21;52.35;95345.47;4197114;28;20047;-52
2023/02/18 03:48:04;;;;;;;23.40;12.30;;;;;;;5.32;51.88;95347.28;4196640;28;20059;-51
2023/02/18 03:50:06;;;;;;;23.15;12.70;;;;;;;5.11;51.52;95367.84;4202512;28;20107;-50
2023/02/18 03:52:08;;;;;;;26.38;13.27;;;;;;;5.21;51.91;95350.66;4182114;28;20048;-52
2023/02/18 03:54:10;;;;;;;22.17;12.82;;;;;;;5.30;51.92;95359.56;4180163;28;20041;-54
2023/02/18 03:56:12;;;;;;;24.80;12.70;;;;;;;5.41;51.70;95358.78;4179363;28;20223;-55
2023/02/18 03:58:13;;;;;;;22.80;13.38;;;;;;;5.48;51.68;95358.22;4191724;28;20110;-55
2023/02/18 04:00:15;;;;;;;23.20;13.23;;;;;;;5.47;51.83;95360.94;4196114;28;20053;-51
2023/02/18 04:02:17;;;;;;;26.45;12.75;;;;;;;5.51;51.33;95346.78;4188076;28;20076;-52
2023/02/18 04:04:19;;;;;;;28.35;16.20;;;;;;;5.52;51.42;95353.63;4203013;28;20135;-52
2023/02/18 04:06:22;;;;;;;48.80;21.88;;;;;;;5.57;52.22;95346.34;4179689;28;20059;-52
2023/02/18 04:08:24;;;;;;;42.50;20.45;;;;;;;5.72;52.45;95344.34;4180957;28;20045;-51
2023/02/18 04:10:25;;;;;;;27.25;15.35;;;;;;;5.77;51.62;95342.25;4181023;28;20056;-49
2023/02/18 04:12:27;;;;;;;26.10;14.23;;;;;;;5.74;51.30;95332.06;4180718;28;20048;-52
2023/02/18 04:14:29;;;;;;;23.33;12.68;;;;;;;5.69;51.39;95335.03;4186040;28;20052;-50
2023/02/18 04:16:30;;;;;;;21.00;12.80;;;;;;;5.66;50.91;95330.06;4188616;28;20459;-50
2023/02/18 04:18:32;;;;;;;23.25;13.57;;;;;;;5.68;51.31;95330.78;4196045;28;20106;-54
2023/02/18 04:20:34;;;;;;;21.75;13.07;;;;;;;5.65;51.20;95324.97;4199617;28;20086;-54
2023/02/18 04:22:35;;;;;;;29.13;13.60;;;;;;;5.61;51.44;95321.75;4192109;28;20447;-53
2023/02/18 04:24:37;;;;;;;23.40;13.68;;;;;;;5.64;51.10;95318.94;4203409;28;20049;-55
2023/02/18 04:26:39;;;;;;;24.08;13.48;;;;;;;5.65;50.89;95318.00;4197602;28;20601;-56
2023/02/18 04:28:40;;;;;;;24.80;13.95;;;;;;;5.57;51.07;95315.16;4198369;28;20477;-57
2023/02/18 04:30:43;;;;;;;25.13;13.32;;;;;;;5.55;51.38;95319.63;4202577;28;20105;-53
2023/02/18 04:32:45;;;;;;;24.95;13.02;;;;;;;5.51;51.21;95313.00;4195586;28;20761;-52
2023/02/18 04:34:46;;;;;;;23.95;14.27;;;;;;;5.46;51.49;95310.75;4196514;28;20127;-55
2023/02/18 04:36:48;;;;;;;25.15;13.45;;;;;;;5.51;51.29;95310.41;4194904;28;20064;-50
2023/02/18 04:38:50;;;;;;;29.92;14.25;;;;;;;5.57;51.17;95303.91;4197258;28;20068;-54
2023/02/18 04:40:51;;;;;;;22.20;12.52;;;;;;;5.50;51.01;95313.94;4194214;28;20045;-51
2023/02/18 04:42:53;;;;;;;25.10;13.60;;;;;;;5.38;51.44;95314.81;4205437;28;20488;-54
2023/02/18 04:45:02;;;;;;;23.88;13.93;;;;;;;5.41;51.40;95310.25;4186862;28;20053;-54
2023/02/18 04:47:05;;;;;;;23.95;12.55;;;;;;;5.50;51.95;95308.72;4197124;28;20056;-50
2023/02/18 04:49:07;;;;;;;24.25;12.40;;;;;;;5.52;51.23;95320.66;4202194;28;20436;-52
2023/02/18 04:51:09;;;;;;;26.20;13.88;;;;;;;5.37;52.35;95320.97;4215299;28;20093;-50
2023/02/18 04:53:10;;;;;;;30.45;13.85;;;;;;;5.35;51.84;95326.28;4215096;28;20426;-49
2023/02/18 04:55:12;;;;;;;25.15;12.75;;;;;;;5.37;52.10;95324.38;4214629;28;20052;-55
2023/02/18 04:57:14;;;;;;;24.40;14.38;;;;;;;5.32;51.77;95332.53;4210208;28;20060;-49
2023/02/18 04:59:15;;;;;;;25.08;13.35;;;;;;;5.37;52.15;95333.97;4206075;28;20051;-54
2023/02/18 05:01:17;;;;;;;24.70;13.73;;;;;;;5.40;52.34;95325.94;4209074;28;20059;-55
2023/02/18 05:03:19;;;;;;;27.70;14.07;;;;;;;5.01;52.56;95325.28;4212351;28;20070;-55
2023/02/18 05:05:21;;;;;;;25.73;12.88;;;;;;;4.77;53.21;95346.03;4215199;28;20554;-53
2023/02/18 05:07:22;;;;;;;25.08;14.27;;;;;;;4.53;54.15;95361.53;4206280;28;20048;-50
2023/02/18 05:09:24;;;;;;;23.45;13.65;;;;;;;4.35;54.49;95356.69;4186646;28;20095;-54
2023/02/18 05:11:26;;;;;;;24.33;13.55;;;;;;;4.46;54.32;95361.97;4182929;28;20091;-51
2023/02/18 05:13:27;;;;;;;23.27;13.35;;;;;;;4.66;53.94;95351.97;4193064;28;20125;-52
2023/02/18 05:15:29;;;;;;;35.75;13.68;;;;;;;4.83;53.67;95346.41;4199517;28;20104;-53
2023/02/18 05:17:31;;;;;;;24.10;13.93;;;;;;;4.97;53.45;95337.66;4201195;28;20045;-54
2023/02/18 05:19:32;;;;;;;20.00;13.23;;;;;;;5.04;52.79;95343.25;4183098;28;20145;-55
2023/02/18 05:21:34;;;;;;;22.73;13.18;;;;;;;5.05;52.85;95339.69;4181791;28;20037;-51
2023/02/18 05:23:36;;;;;;;24.52;14.05;;;;;;;5.09;52.63;95341.97;4197862;28;20071;-53
2023/02/18 05:25:37;;;;;;;22.63;13.52;;;;;;;5.20;52.05;95336.00;4196148;28;20048;-55
2023/02/18 05:27:39;;;;;;;27.85;14.25;;;;;;;5.23;52.31;95333.19;4210297;28;20056;-52
2023/02/18 05:29:40;;;;;;;23.55;13.27;;;;;;;5.10;52.17;95322.03;4210063;28;20051;-53
2023/02/18 05:31:42;;;;;;;25.48;13.75;;;;;;;5.12;52.95;95327.97;4204149;28;20093;-54
2023/02/18 05:33:44;;;;;;;26.13;13.02;;;;;;;5.05;52.41;95326.72;4214665;28;20083;-53
2023/02/18 05:35:45;;;;;;;21.48;13.07;;;;;;;5.06;52.45;95318.81;4212828;28;20520;-54
2023/02/18 05:37:47;;;;;;;23.80;13.80;;;;;;;5.20;53.02;95310.03;4202362;28;20048;-53
2023/02/18 05:39:49;;;;;;;21.10;13.15;;;;;;;5.33;52.25;95317.75;4211921;28;20060;-56
2023/02/18 05:41:50;;;;;;;26.67;12.93;;;;;;;5.42;51.68;95324.06;4196766;28;20044;-52
2023/02/18 05:46:12;;;;;;;28.90;14.35;;;;;;;5.40;51.69;95316.38;4201877;28;20125;-56
2023/02/18 05:48:14;;;;;;;28.20;13.93;;;;;;;5.48;52.13;95316.63;4214760;28;20055;-55
2023/02/18 05:50:16;;;;;;;28.23;13.63;;;;;;;5.56;51.29;95323.06;4214389;28;20058;-55
2023/02/18 05:52:17;;;;;;;27.75;13.25;;;;;;;5.54;51.58;95328.34;4184521;28;20093;-55
2023/02/18 05:54:19;;;;;;;31.75;13.73;;;;;;;5.52;51.45;95343.22;4184793;28;20056;-53
2023/02/18 05:56:21;;;;;;;24.52;12.43;;;;;;;5.50;51.46;95350.31;4185420;28;20060;-56
2023/02/18 05:58:22;;;;;;;29.77;13.63;;;;;;;5.45;51.54;95347.22;4196664;28;20087;-53
2023/02/18 06:00:24;;;;;;;28.42;12.90;;;;;;;5.43;51.85;95352.53;4191171;28;20383;-55
2023/02/18 06:02:26;;;;;;;23.60;13.65;;;;;;;5.37;52.05;95354.75;4196186;28;20451;-57
2023/02/18 06:04:27;;;;;;;22.05;12.00;;;;;;;5.38;52.23;95352.03;4181293;28;20065;-56
2023/02/18 06:06:29;;;;;;;28.85;12.95;;;;;;;5.47;52.24;95356.56;4180903;28;20055;-55
2023/02/18 06:08:30;;;;;;;29.45;13.30;;;;;;;5.38;52.16;95356.38;4189578;28;20056;-55
2023/02/18 06:10:32;;;;;;;23.90;12.57;;;;;;;5.49;52.15;95346.88;4197197;28;20084;-58
2023/02/18 06:12:33;;;;;;;30.50;12.45;;;;;;;5.62;51.88;95346.81;4187770;28;20071;-56
2023/02/18 06:14:35;;;;;;;22.75;11.52;;;;;;;5.78;51.25;95351.72;4213891;28;20097;-52
2023/02/18 06:16:37;;;;;;;19.88;12.13;;;;;;;5.90;51.25;95348.19;4212281;28;20498;-60
2023/02/18 06:18:38;;;;;;;22.70;11.95;;;;;;;6.01;51.27;95347.44;4213049;28;20044;-57
2023/02/18 06:20:40;;;;;;;22.63;12.25;;;;;;;6.08;51.04;95346.00;4207730;28;20048;-54
2023/02/18 06:22:42;;;;;;;26.20;12.25;;;;;;;6.19;50.18;95336.56;4204890;28;20036;-54
2023/02/18 06:24:43;;;;;;;26.35;13.15;;;;;;;6.27;50.64;95334.22;4195686;28;20114;-57
2023/02/18 06:26:45;;;;;;;29.95;13.80;;;;;;;6.29;50.05;95345.34;4196589;28;20418;-55
2023/02/18 06:28:47;;;;;;;26.73;12.90;;;;;;;6.27;50.10;95347.22;4201382;28;20048;-55
2023/02/18 06:30:49;;;;;;;30.20;13.10;;;;;;;6.28;49.83;95346.28;4198456;28;20056;-52
2023/02/18 06:32:50;;;;;;;23.13;12.32;;;;;;;6.24;50.45;95331.84;4195784;28;20102;-52
2023/02/18 06:34:52;;;;;;;23.52;11.30;;;;;;;6.22;50.17;95337.19;4198828;28;20402;-59
2023/02/18 06:36:54;;;;;;;23.90;13.48;;;;;;;6.20;50.20;95336.47;4208056;28;20052;-57
2023/02/18 06:38:56;;;;;;;22.08;12.88;;;;;;;6.25;50.39;95326.53;4199583;28;20534;-55
2023/02/18 06:40:58;;;;;;;21.77;12.02;;;;;;;6.17;50.46;95328.88;4192214;28;20659;-55
2023/02/18 06:42:59;;;;;;;25.23;12.73;;;;;;;6.24;49.92;95335.28;4200093;28;20049;-59
2023/02/18 06:45:05;;;;;;;21.58;12.07;;;;;;;6.34;50.01;95343.22;4197290;28;20135;-52
2023/02/18 06:47:07;;;;;;;30.73;12.13;;;;;;;6.34;49.79;95341.44;4203052;28;20410;-52
2023/02/18 06:49:11;;;;;;;27.55;13.20;;;;;;;6.33;50.05;95334.59;4211167;28;20125;-56
2023/02/18 06:51:14;;;;;;;23.60;12.07;;;;;;;6.46;50.20;95334.47;4211961;28;20052;-52
2023/02/18 06:53:16;;;;;;;22.08;11.90;;;;;;;6.54;49.68;95328.69;4212027;28;20097;-53
2023/02/18 06:55:18;;;;;;;25.08;12.50;;;;;;;6.63;49.49;95330.56;4196560;28;20060;-55
2023/02/18 06:57:20;;;;;;;30.52;13.13;;;;;;;6.78;49.16;95328.53;4211088;28;20044;-52
2023/02/18 06:59:21;;;;;;;23.58;11.98;;;;;;;6.84;48.77;95328.06;4204593;28;20052;-55
2023/02/18 07:01:23;;;;;;;37.00;12.73;;;;;;;6.80;48.76;95324.03;4194778;28;20074;-54
2023/02/18 07:03:25;;;;;;;29.30;12.70;;;;;;;6.83;48.70;95336.81;4189238;28;20044;-53
2023/02/18 07:05:27;;;;;;;23.20;12.60;;;;;;;6.88;48.68;95332.09;4191154;28;20131;-53
2023/02/18 07:07:28;;;;;;;21.60;12.02;;;;;;;6.94;48.41;95334.19;4196611;28;20135;-53
2023/02/18 07:09:30;;;;;;;37.08;11.32;;;;;;;6.98;48.31;95332.16;4208989;28;20052;-54
2023/02/18 07:11:32;;;;;;;25.85;12.43;;;;;;;7.09;47.95;95326.94;4188900;28;20132;-56
2023/02/18 07:13:34;;;;;;;40.20;13.02;;;;;;;7.19;47.83;95327.03;4180446;28;20052;-55
2023/02/18 07:15:35;;;;;;;25.85;13.23;;;;;;;7.15;47.81;95321.22;4182991;28;20388;-56
2023/02/18 07:17:38;;;;;;;22.02;11.98;;;;;;;7.05;47.75;95316.88;4180533;28;20473;-56
2023/02/18 07:19:39;;;;;;;26.23;12.88;;;;;;;7.08;47.91;95319.25;4189418;28;20098;-55
2023/02/18 07:21:41;;;;;;;30.13;13.32;;;;;;;7.02;47.84;95317.97;4185859;28;20056;-58
2023/02/18 07:23:43;;;;;;;29.88;13.10;;;;;;;6.57;48.62;95315.41;4195205;28;20052;-58
2023/02/18 07:25:45;;;;;;;27.48;12.23;;;;;;;6.70;48.96;95325.69;4207152;28;20151;-56
2023/02/18 07:27:46;;;;;;;25.98;13.18;;;;;;;6.70;48.89;95318.72;4209414;28;20375;-57
2023/02/18 07:29:48;;;;;;;30.88;13.18;;;;;;;6.85;48.83;95313.25;4211447;28;20082;-57
2023/02/18 07:31:50;;;;;;;22.33;12.80;;;;;;;6.94;48.34;95315.94;4201705;28;20076;-55
2023/02/18 07:33:52;;;;;;;27.50;12.75;;;;;;;6.56;49.27;95317.19;4197355;28;20054;-57
2023/02/18 07:35:55;;;;;;;27.30;13.05;;;;;;;6.53;49.75;95321.81;4185590;28;20422;-57
2023/02/18 07:37:57;;;;;;;27.20;12.45;;;;;;;6.63;49.78;95327.97;4181410;28;20110;-58
2023/02/18 07:39:59;;;;;;;32.78;12.77;;;;;;;6.85;49.34;95334.91;4194543;28;20527;-57
2023/02/18 07:42:03;;;;;;;20.70;12.10;;;;;;;7.12;48.56;95333.66;4181710;28;20509;-56
2023/02/18 07:44:05;;;;;;;26.33;12.40;;;;;;;7.29;48.58;95332.31;4195650;28;20055;-56
2023/02/18 07:46:07;;;;;;;26.95;13.07;;;;;;;7.46;47.88;95338.78;4192686;28;20099;-55
2023/02/18 07:48:09;;;;;;;27.30;13.43;;;;;;;7.60;47.54;95351.53;4204390;28;20052;-55
2023/02/18 07:50:11;;;;;;;26.00;12.27;;;;;;;7.75;47.24;95344.25;4210081;28;20067;-56
2023/02/18 07:52:13;;;;;;;22.83;13.45;;;;;;;7.94;46.63;95348.78;4208990;28;20059;-55
2023/02/18 07:54:17;;;;;;;26.35;14.32;;;;;;;7.84;46.09;95347.88;4200738;28;20151;-53
2023/02/18 07:56:18;;;;;;;25.23;12.27;;;;;;;7.90;46.65;95349.97;4210734;28;20052;-55
2023/02/18 07:58:26;;;;;;;31.27;13.32;;;;;;;7.98;46.39;95350.19;4196480;28;20483;-52
2023/02/18 08:00:28;;;;;;;23.35;12.80;;;;;;;8.07;46.35;95346.81;4212874;28;20587;-57
2023/02/18 08:02:29;;;;;;;26.45;14.00;;;;;;;8.18;46.24;95344.13;4198056;28;20055;-54
2023/02/18 08:04:31;;;;;;;24.58;12.73;;;;;;;8.26;46.00;95334.81;4179983;28;20055;-51
2023/02/18 08:06:52;;;;;;;29.42;12.85;;;;;;;8.34;45.51;95338.41;4187172;28;20048;-55
2023/02/18 08:08:54;;;;;;;25.92;12.95;;;;;;;8.49;44.98;95341.56;4184566;28;20060;-59
2023/02/18 08:10:58;;;;;;;23.20;13.02;;;;;;;8.58;45.18;95339.94;4180741;28;20500;-62
2023/02/18 08:13:07;;;;;;;26.55;14.10;;;;;;;8.72;45.20;95330.94;4180448;28;20045;-60
2023/02/18 08:15:09;;;;;;;27.98;13.38;;;;;;;8.76;44.88;95327.94;4181253;28;20064;-61
2023/02/18 08:17:10;;;;;;;22.10;12.68;;;;;;;8.79;44.51;95330.25;4193444;28;20214;-60
2023/02/18 08:19:12;;;;;;;26.02;13.30;;;;;;;8.93;44.93;95325.66;4180050;28;20041;-58
2023/02/18 08:21:15;;;;;;;23.00;12.95;;;;;;;9.10;43.78;95326.75;4180978;28;20130;-55
2023/02/18 08:23:21;;;;;;;33.15;13.45;;;;;;;9.27;43.84;95322.66;4194742;28;20041;-55
2023/02/18 08:25:23;;;;;;;29.40;14.68;;;;;;;9.32;44.18;95317.88;4193477;28;20067;-57
2023/02/18 08:27:30;;;;;;;21.45;13.27;;;;;;;9.34;43.70;95315.94;4201339;28;20077;-55
2023/02/18 08:29:32;;;;;;;25.00;13.90;;;;;;;9.37;43.62;95311.25;4200557;28;20049;-59
2023/02/18 08:31:33;;;;;;;26.73;13.35;;;;;;;9.39;43.46;95311.13;4196302;28;20048;-52
2023/02/18 08:33:35;;;;;;;26.75;14.43;;;;;;;9.40;43.26;95308.38;4201879;28;20044;-55
2023/02/18 08:35:37;;;;;;;26.75;15.15;;;;;;;9.41;43.32;95315.25;4201360;28;20048;-55
2023/02/18 08:37:38;;;;;;;31.42;13.98;;;;;;;9.38;43.14;95314.72;4199293;28;20383;-57
2023/02/18 08:39:54;;;;;;;28.23;14.73;;;;;;;9.39;43.32;95305.91;4199904;28;20497;-54
2023/02/18 08:41:56;;;;;;;29.17;15.20;;;;;;;9.42;43.52;95288.16;4191302;28;20067;-55
2023/02/18 08:43:57;;;;;;;29.00;14.63;;;;;;;9.45;43.51;95296.69;4202396;28;21231;-56
2023/02/18 08:45:59;;;;;;;33.97;16.25;;;;;;;9.45;43.70;95292.28;4191786;28;20053;-55
2023/02/18 08:48:01;;;;;;;33.22;15.65;;;;;;;9.43;44.05;95297.63;4202382;28;20518;-54
2023/02/18 08:50:24;;;;;;;36.88;16.95;;;;;;;9.51;43.73;95301.38;4211342;28;20043;-54
2023/02/18 08:52:26;;;;;;;27.38;14.60;;;;;;;9.58;43.50;95305.91;4186648;28;20036;-57
2023/02/18 08:54:28;;;;;;;28.77;14.73;;;;;;;9.72;43.21;95314.28;4211595;28;20068;-53
2023/02/18 08:56:31;;;;;;;30.48;15.43;;;;;;;9.83;43.60;95309.75;4210938;28;20402;-54
2023/02/18 08:58:36;;;;;;;38.57;15.07;;;;;;;9.94;43.43;95308.78;4211029;28;20102;-56
2023/02/18 09:00:38;;;;;;;31.75;15.77;;;;;;;10.08;42.96;95314.53;4211996;28;20044;-54
2023/02/18 09:02:40;;;;;;;29.98;14.98;;;;;;;10.10;43.10;95313.41;4199014;28;20080;-58
2023/02/18 09:04:42;;;;;;;34.65;14.30;;;;;;;10.23;42.95;95323.59;4210884;28;20055;-54
2023/02/18 09:06:45;;;;;;;33.45;16.17;;;;;;;10.29;42.84;95314.34;4210989;28;20105;-56
2023/02/18 09:08:47;;;;;;;34.10;15.48;;;;;;;10.30;43.22;95316.03;4203239;28;20513;-54
2023/02/18 09:10:48;;;;;;;38.92;19.85;;;;;;;10.35;43.63;95326.91;4205783;28;20044;-53
2023/02/18 09:12:50;;;;;;;31.70;15.38;;;;;;;10.37;42.56;95327.59;4211453;28;20040;-55
2023/02/18 09:14:52;;;;;;;27.95;15.18;;;;;;;10.45;42.44;95325.91;4204046;28;20538;-58
2023/02/18 09:16:56;;;;;;;28.92;14.50;;;;;;;10.40;42.00;95316.81;4196712;28;20059;-57
2023/02/18 09:18:58;;;;;;;30.77;14.98;;;;;;;10.49;42.19;95315.16;4199754;28;20048;-54
2023/02/18 09:20:59;;;;;;;27.08;13.95;;;;;;;10.55;42.40;95319.81;4214257;28;20055;-54
2023/02/18 09:23:02;;;;;;;26.83;13.32;;;;;;;10.58;42.14;95317.75;4192865;28;20091;-55
2023/02/18 09:25:04;;;;;;;27.63;13.07;;;;;;;10.74;41.46;95318.91;4204208;28;20105;-55
2023/02/18 09:27:06;;;;;;;24.27;12.70;;;;;;;10.88;41.49;95315.78;4214056;28;20079;-54
2023/02/18 09:29:10;;;;;;;20.58;13.23;;;;;;;11.05;41.07;95301.91;4214080;28;20134;-56
2023/02/18 09:31:15;;;;;;;27.92;14.43;;;;;;;11.28;40.70;95291.00;4192571;28;20769;-55
2023/02/18 09:33:17;;;;;;;26.23;13.60;;;;;;;11.50;39.91;95288.91;4205316;28;20040;-55
2023/02/18 09:35:19;;;;;;;23.13;13.77;;;;;;;11.53;40.03;95283.34;4213962;28;20086;-54
2023/02/18 09:37:20;;;;;;;30.30;14.77;;;;;;;11.56;39.81;95283.06;4213085;28;20062;-56
2023/02/18 09:39:22;;;;;;;32.70;15.07;;;;;;;11.65;39.43;95282.16;4197796;28;20143;-58